Time;durP1;ratioP1;P1;durP2;ratioP2;P2;SDS_P1;SDS_P2;PMS_P1;PMS_P2;Temp;Humidity;BMP_temperature;BMP_pressure;BME280_temperature;BME280_humidity;BME280_pressure;Samples;Min_cycle;Max_cycle;Signal;HPM_P1;HPM_P2
2023/07/18 04:00:41;;;;;;;2.50;2.13;;;14.50;97.30;;;;;;5897189;23;20371;-84
2023/07/18 04:03:06;;;;;;;3.67;1.73;;;14.50;97.30;;;;;;4951008;29;21027;-80
2023/07/18 04:05:32;;;;;;;3.97;1.13;;;14.60;97.30;;;;;;4953328;28;20214;-83
2023/07/18 04:07:57;;;;;;;1.33;1.30;;;14.60;97.30;;;;;;4952850;29;20329;-84
2023/07/18 04:10:23;;;;;;;1.70;1.70;;;14.60;97.30;;;;;;4952055;28;20183;-84
2023/07/18 04:12:48;;;;;;;3.40;1.97;;;14.60;97.30;;;;;;4945663;28;20262;-84
2023/07/18 04:15:14;;;;;;;2.13;1.97;;;14.70;97.30;;;;;;5006725;23;20661;-65
2023/07/18 04:17:41;;;;;;;2.90;1.83;;;14.70;97.30;;;;;;4950091;28;20241;-65
2023/07/18 04:20:07;;;;;;;1.40;1.37;;;14.70;97.30;;;;;;4948271;28;20423;-66
2023/07/18 04:22:32;;;;;;;8.07;2.40;;;14.80;97.30;;;;;;4956826;28;20430;-65
2023/07/18 04:24:58;;;;;;;6.97;2.27;;;14.80;97.30;;;;;;4955771;28;20217;-65
2023/07/18 04:27:26;;;;;;;2.97;2.07;;;14.80;97.30;;;;;;4952422;28;20225;-66
2023/07/18 04:29:52;;;;;;;1.77;1.77;;;14.80;97.30;;;;;;4949838;28;20215;-65
2023/07/18 04:32:18;;;;;;;4.47;2.57;;;14.90;97.30;;;;;;4958459;28;20442;-66
2023/07/18 04:34:44;;;;;;;2.80;1.73;;;14.90;97.30;;;;;;4955619;28;20416;-66
2023/07/18 04:37:10;;;;;;;3.43;1.77;;;14.90;97.30;;;;;;4950166;28;20969;-65
2023/07/18 04:39:35;;;;;;;1.47;1.37;;;14.90;97.30;;;;;;4965568;28;20278;-66
2023/07/18 04:42:01;;;;;;;1.47;1.47;;;15.00;97.30;;;;;;4956058;28;20697;-65
2023/07/18 04:44:27;;;;;;;3.00;2.83;;;15.00;97.30;;;;;;4969851;28;20193;-65
2023/07/18 04:46:52;;;;;;;2.17;2.03;;;15.00;97.30;;;;;;4961686;28;20422;-66
2023/07/18 04:49:19;;;;;;;3.23;2.80;;;15.00;97.30;;;;;;4960599;28;20595;-65
2023/07/18 04:51:44;;;;;;;2.30;1.73;;;15.00;97.30;;;;;;4957312;28;20690;-65
2023/07/18 04:54:10;;;;;;;1.83;1.73;;;15.00;97.30;;;;;;4948926;28;20426;-65
2023/07/18 04:56:36;;;;;;;3.30;2.53;;;15.00;97.30;;;;;;4968029;28;20189;-66
2023/07/18 04:59:01;;;;;;;8.30;2.27;;;15.00;97.30;;;;;;4953887;28;20183;-66
2023/07/18 05:01:28;;;;;;;2.10;1.97;;;15.10;97.30;;;;;;4952387;28;20608;-65
2023/07/18 05:03:54;;;;;;;1.37;1.33;;;15.10;97.30;;;;;;4970157;28;20282;-66
2023/07/18 05:06:20;;;;;;;2.57;2.37;;;15.10;97.30;;;;;;4960426;28;20418;-65
2023/07/18 05:08:45;;;;;;;8.60;2.60;;;15.10;97.30;;;;;;4954700;28;20264;-65
2023/07/18 05:11:11;;;;;;;3.30;2.00;;;15.10;97.30;;;;;;4952768;28;20671;-66
2023/07/18 05:13:38;;;;;;;1.33;1.27;;;15.20;97.30;;;;;;4961685;28;20289;-66
2023/07/18 05:16:04;;;;;;;1.60;1.50;;;15.20;97.30;;;;;;4961089;28;20562;-65
2023/07/18 05:18:30;;;;;;;5.77;2.60;;;15.20;97.30;;;;;;4968344;28;20264;-66
2023/07/18 05:20:59;;;;;;;2.63;2.23;;;15.20;97.30;;;;;;4959823;28;20919;-65
2023/07/18 05:23:24;;;;;;;1.67;1.60;;;15.30;97.30;;;;;;4959704;28;20179;-65
2023/07/18 05:25:50;;;;;;;1.97;1.87;;;15.30;97.30;;;;;;4961882;28;20433;-66
2023/07/18 05:28:15;;;;;;;1.40;1.13;;;15.30;97.30;;;;;;4968324;28;20238;-66
2023/07/18 05:30:41;;;;;;;2.37;1.90;;;15.40;97.30;;;;;;4953813;28;20209;-65
2023/07/18 05:33:08;;;;;;;1.50;1.43;;;15.40;97.30;;;;;;4952596;28;20167;-65
2023/07/18 05:35:34;;;;;;;2.30;1.77;;;15.50;97.30;;;;;;4964097;28;20663;-65
2023/07/18 05:38:01;;;;;;;2.10;1.50;;;15.50;97.30;;;;;;4961341;28;20841;-65
2023/07/18 05:40:27;;;;;;;1.47;1.37;;;15.50;97.30;;;;;;4959406;28;20446;-66
2023/07/18 05:42:53;;;;;;;9.80;2.30;;;15.60;97.30;;;;;;4949434;28;20449;-66
2023/07/18 05:45:18;;;;;;;1.20;1.10;;;15.60;97.30;;;;;;4948708;28;20673;-66
2023/07/18 05:47:44;;;;;;;3.70;1.77;;;15.70;97.30;;;;;;4963154;28;20195;-65
2023/07/18 05:50:10;;;;;;;2.73;1.50;;;15.70;97.30;;;;;;4954828;28;20663;-65
2023/07/18 05:52:35;;;;;;;2.97;2.00;;;15.80;97.30;;;;;;4964326;28;20179;-65
2023/07/18 05:55:02;;;;;;;2.20;2.03;;;15.80;97.30;;;;;;4964495;28;20183;-65
2023/07/18 05:57:28;;;;;;;1.53;1.43;;;15.90;97.30;;;;;;4966325;28;20289;-66
2023/07/18 05:59:53;;;;;;;2.63;1.80;;;15.90;97.30;;;;;;4954437;28;20997;-65
2023/07/18 06:02:21;;;;;;;3.23;1.93;;;16.00;97.30;;;;;;4949440;28;20199;-66
2023/07/18 06:04:47;;;;;;;2.33;1.43;;;16.00;97.30;;;;;;4949505;28;20176;-66
2023/07/18 06:07:12;;;;;;;1.93;1.83;;;16.10;97.30;;;;;;4948176;28;20462;-65
2023/07/18 06:09:38;;;;;;;4.50;3.10;;;16.20;97.30;;;;;;4949817;28;20478;-65
2023/07/18 06:12:04;;;;;;;3.20;2.23;;;16.20;97.30;;;;;;4950824;28;20195;-65
2023/07/18 06:14:30;;;;;;;7.80;1.87;;;16.30;97.30;;;;;;4966165;28;20547;-66
2023/07/18 06:16:56;;;;;;;1.37;1.27;;;16.40;97.30;;;;;;4958455;28;20903;-65
2023/07/18 06:19:22;;;;;;;2.20;2.00;;;16.50;97.30;;;;;;4957183;28;20174;-66
2023/07/18 06:21:48;;;;;;;1.33;1.30;;;16.50;97.30;;;;;;4968872;28;20434;-66
2023/07/18 06:24:16;;;;;;;2.90;1.73;;;16.60;97.30;;;;;;4952880;28;20542;-65
2023/07/18 06:26:48;;;;;;;5.03;2.03;;;16.60;97.30;;;;;;4944103;28;20888;-65
2023/07/18 06:29:17;;;;;;;1.90;1.80;;;16.70;97.30;;;;;;4971885;28;20941;-66
2023/07/18 06:31:44;;;;;;;2.43;1.97;;;16.80;97.30;;;;;;4957025;28;20489;-65
2023/07/18 06:34:10;;;;;;;2.43;2.23;;;16.80;97.30;;;;;;4963686;28;20858;-65
2023/07/18 06:36:35;;;;;;;4.63;2.13;;;16.90;97.30;;;;;;4959615;28;20512;-65
2023/07/18 06:39:01;;;;;;;1.30;1.20;;;17.00;97.30;;;;;;4961329;28;20210;-66
2023/07/18 06:41:27;;;;;;;10.73;3.47;;;17.10;97.30;;;;;;4959710;28;20206;-65
2023/07/18 06:43:54;;;;;;;10.83;3.23;;;17.20;97.30;;;;;;4953196;28;20187;-66
2023/07/18 06:46:21;;;;;;;1.70;1.60;;;17.30;97.30;;;;;;4960771;28;20198;-66
2023/07/18 06:48:47;;;;;;;1.80;1.70;;;17.30;97.30;;;;;;4960740;28;21153;-66
2023/07/18 06:51:14;;;;;;;1.57;1.40;;;17.40;97.30;;;;;;4959141;28;20443;-66
2023/07/18 06:53:40;;;;;;;6.53;1.83;;;17.40;97.30;;;;;;4959244;28;20190;-66
2023/07/18 06:56:05;;;;;;;3.57;1.70;;;17.40;97.30;;;;;;4967005;28;20430;-66
2023/07/18 06:58:31;;;;;;;2.93;1.53;;;17.50;97.30;;;;;;4963855;28;20256;-66
2023/07/18 07:00:56;;;;;;;13.80;2.53;;;17.50;97.30;;;;;;4963465;28;20733;-65
2023/07/18 07:03:22;;;;;;;2.37;1.77;;;17.60;97.30;;;;;;4956981;28;20179;-65
2023/07/18 07:05:47;;;;;;;2.60;1.87;;;17.70;97.10;;;;;;4963360;28;20190;-65
2023/07/18 07:08:13;;;;;;;2.50;1.97;;;17.70;96.80;;;;;;4954325;28;20207;-66
2023/07/18 07:10:40;;;;;;;5.53;2.70;;;17.70;95.70;;;;;;4952134;28;20265;-65
2023/07/18 07:13:06;;;;;;;4.20;2.23;;;17.80;96.30;;;;;;4966459;28;20186;-65
2023/07/18 07:15:32;;;;;;;1.33;1.23;;;17.90;96.40;;;;;;4954011;28;20467;-65
2023/07/18 07:17:58;;;;;;;1.40;1.30;;;17.90;96.00;;;;;;4962091;28;20484;-66
2023/07/18 07:20:25;;;;;;;2.77;1.70;;;18.00;95.40;;;;;;4961310;28;20549;-66
2023/07/18 07:22:53;;;;;;;2.00;1.90;;;18.10;95.60;;;;;;4954386;28;20257;-66
2023/07/18 07:25:19;;;;;;;1.67;1.57;;;18.10;94.30;;;;;;4966841;28;20426;-65
2023/07/18 07:27:46;;;;;;;4.90;2.80;;;18.20;95.00;;;;;;4955836;28;21005;-66
2023/07/18 07:30:15;;;;;;;2.53;1.93;;;18.30;94.70;;;;;;4955987;28;20407;-66
2023/07/18 07:32:45;;;;;;;1.53;1.30;;;18.40;93.60;;;;;;4950613;28;20430;-66
2023/07/18 07:35:11;;;;;;;3.50;2.60;;;18.40;93.80;;;;;;4956055;28;20429;-65
2023/07/18 07:37:40;;;;;;;6.03;3.03;;;18.50;94.20;;;;;;4962208;28;20426;-65
2023/07/18 07:40:11;;;;;;;1.63;1.53;;;18.60;93.50;;;;;;4955936;28;20422;-65
2023/07/18 07:42:42;;;;;;;1.93;1.37;;;18.70;93.30;;;;;;4968694;28;20425;-66
2023/07/18 07:45:08;;;;;;;2.43;2.00;;;18.80;93.30;;;;;;4956934;28;20430;-65
2023/07/18 07:47:34;;;;;;;0.90;0.90;;;18.90;93.60;;;;;;4966421;28;20464;-65
2023/07/18 07:50:01;;;;;;;4.00;2.10;;;19.00;92.80;;;;;;4959696;28;20179;-65
2023/07/18 07:52:27;;;;;;;2.70;1.50;;;19.10;92.20;;;;;;4968527;28;20442;-66
2023/07/18 07:54:52;;;;;;;2.97;1.47;;;19.20;91.50;;;;;;4961580;28;20414;-65
2023/07/18 07:57:18;;;;;;;4.27;1.87;;;19.20;90.10;;;;;;4962686;28;20438;-65
2023/07/18 07:59:43;;;;;;;4.67;1.87;;;19.30;91.10;;;;;;4966008;28;20179;-66
2023/07/18 08:02:09;;;;;;;3.00;1.97;;;19.40;91.30;;;;;;4958313;28;20199;-65
2023/07/18 08:04:36;;;;;;;1.17;1.07;;;19.50;91.20;;;;;;4965983;28;20667;-65
2023/07/18 08:07:03;;;;;;;1.77;1.70;;;19.50;90.80;;;;;;4955887;28;20261;-66
2023/07/18 08:09:29;;;;;;;1.70;1.20;;;19.60;89.30;;;;;;4969386;28;20481;-65
2023/07/18 08:11:54;;;;;;;1.90;1.80;;;19.70;89.30;;;;;;4961654;28;20449;-65
2023/07/18 08:14:21;;;;;;;4.93;1.37;;;19.80;88.40;;;;;;4961242;28;20179;-66
2023/07/18 08:16:47;;;;;;;1.63;1.53;;;19.80;88.00;;;;;;4950314;28;20222;-65
2023/07/18 08:19:13;;;;;;;2.67;1.83;;;19.90;88.10;;;;;;4964261;28;20418;-65
2023/07/18 08:21:38;;;;;;;1.77;1.67;;;19.90;88.10;;;;;;4966528;28;20293;-65
2023/07/18 08:24:04;;;;;;;1.80;1.37;;;20.00;88.50;;;;;;4965097;28;20207;-65
2023/07/18 08:26:30;;;;;;;1.97;1.87;;;20.10;86.70;;;;;;4952109;28;20187;-65
2023/07/18 08:28:55;;;;;;;1.40;1.30;;;20.10;87.30;;;;;;4964045;28;20520;-65
2023/07/18 08:31:21;;;;;;;3.43;2.43;;;20.20;85.80;;;;;;4950953;28;20227;-65
2023/07/18 08:33:47;;;;;;;2.30;1.40;;;20.40;85.70;;;;;;4962134;28;20174;-64
2023/07/18 08:36:13;;;;;;;1.43;1.33;;;20.50;86.10;;;;;;4959269;28;20818;-64
2023/07/18 08:38:38;;;;;;;4.87;1.90;;;20.50;85.90;;;;;;4966767;28;20457;-64
2023/07/18 08:41:04;;;;;;;5.03;2.43;;;20.60;86.10;;;;;;4956019;28;20296;-64
2023/07/18 08:43:31;;;;;;;2.87;2.10;;;20.70;86.20;;;;;;4953765;28;20190;-65
2023/07/18 08:45:57;;;;;;;1.83;1.63;;;20.90;85.20;;;;;;4968256;28;20187;-65
2023/07/18 08:48:23;;;;;;;1.30;1.20;;;21.00;84.50;;;;;;4969710;28;20470;-65
2023/07/18 08:50:53;;;;;;;3.63;2.27;;;21.00;84.60;;;;;;4961666;28;20480;-64
2023/07/18 08:53:19;;;;;;;2.57;1.67;;;21.10;83.00;;;;;;4960356;28;20414;-65
2023/07/18 08:55:44;;;;;;;3.93;1.27;;;21.20;83.20;;;;;;4950514;28;20426;-64
2023/07/18 08:58:10;;;;;;;2.07;1.50;;;21.30;83.00;;;;;;4964916;28;20547;-64
2023/07/18 09:00:36;;;;;;;2.80;1.80;;;21.40;81.40;;;;;;4951532;28;20746;-65
2023/07/18 09:03:01;;;;;;;1.70;1.60;;;21.50;81.00;;;;;;4957032;28;20419;-66
2023/07/18 09:05:38;;;;;;;1.23;1.13;;;21.50;80.70;;;;;;4966114;28;20628;-64
2023/07/18 09:08:05;;;;;;;1.57;1.40;;;21.60;79.40;;;;;;4958323;28;20265;-66
2023/07/18 09:10:31;;;;;;;3.37;1.53;;;21.60;79.20;;;;;;4958824;28;20451;-65
2023/07/18 09:13:01;;;;;;;1.77;1.67;;;21.70;79.50;;;;;;4969690;28;20425;-66
2023/07/18 09:15:26;;;;;;;1.17;1.10;;;21.70;79.30;;;;;;4952960;28;20474;-65
2023/07/18 09:17:57;;;;;;;1.40;1.17;;;21.80;79.00;;;;;;4961652;28;20418;-65
2023/07/18 09:20:24;;;;;;;2.20;2.00;;;21.80;77.80;;;;;;4961393;28;20206;-65
2023/07/18 09:22:55;;;;;;;2.17;1.73;;;21.90;78.10;;;;;;4951290;28;20945;-65
2023/07/18 09:25:20;;;;;;;2.23;1.43;;;22.00;77.70;;;;;;4948863;28;20517;-64
2023/07/18 09:27:50;;;;;;;1.50;1.33;;;22.10;78.00;;;;;;4950674;28;20574;-64
2023/07/18 09:30:23;;;;;;;1.10;1.03;;;22.20;78.00;;;;;;4950320;28;20215;-64
2023/07/18 09:32:52;;;;;;;1.60;1.40;;;22.30;77.30;;;;;;4948552;28;20414;-65
2023/07/18 09:35:18;;;;;;;1.10;1.00;;;22.30;76.40;;;;;;4945931;28;20441;-65
2023/07/18 09:37:46;;;;;;;1.30;1.13;;;22.40;76.50;;;;;;4955463;28;20431;-65
2023/07/18 09:40:14;;;;;;;2.00;1.40;;;22.40;76.70;;;;;;4956853;28;20183;-64
2023/07/18 09:42:47;;;;;;;1.10;1.00;;;22.50;76.10;;;;;;4964808;28;20438;-65
2023/07/18 09:45:14;;;;;;;0.93;0.83;;;22.60;75.10;;;;;;4957690;28;20474;-65
2023/07/18 09:47:41;;;;;;;2.00;1.83;;;22.60;74.30;;;;;;4957290;28;20766;-66
2023/07/18 09:50:08;;;;;;;2.77;1.60;;;22.70;75.30;;;;;;4963701;28;20786;-65
2023/07/18 09:52:36;;;;;;;1.10;1.00;;;22.80;74.90;;;;;;4948602;28;20557;-65
2023/07/18 09:55:06;;;;;;;1.10;1.00;;;22.90;75.20;;;;;;4960119;28;20433;-65
2023/07/18 09:57:39;;;;;;;2.10;1.30;;;23.00;75.00;;;;;;4961682;28;20844;-66
2023/07/18 10:00:05;;;;;;;2.90;1.60;;;23.10;74.10;;;;;;4950176;28;21017;-66
2023/07/18 10:02:34;;;;;;;1.23;1.10;;;23.20;74.90;;;;;;4947170;28;20441;-66
2023/07/18 10:05:03;;;;;;;1.93;1.30;;;23.30;75.30;;;;;;4957837;28;20457;-66
2023/07/18 10:07:34;;;;;;;1.57;1.40;;;23.40;75.60;;;;;;4967323;28;20469;-66
2023/07/18 10:10:06;;;;;;;1.30;1.20;;;23.50;74.30;;;;;;4965988;28;20422;-66
2023/07/18 10:12:55;;;;;;;2.30;1.77;;;23.50;74.30;;;;;;4972037;28;20508;-64
2023/07/18 10:15:21;;;;;;;1.77;1.23;;;23.50;73.80;;;;;;4947359;28;21029;-65
2023/07/18 10:17:47;;;;;;;4.80;2.10;;;23.60;74.50;;;;;;4978215;23;20520;-83
2023/07/18 10:20:19;;;;;;;1.20;0.93;;;23.60;73.60;;;;;;4986676;28;20414;-85
2023/07/18 10:22:57;;;;;;;1.57;1.50;;;23.60;73.20;;;;;;4972332;28;20596;-87
2023/07/18 10:25:25;;;;;;;2.53;1.40;;;23.70;73.90;;;;;;4969528;28;20424;-87
2023/07/18 10:27:51;;;;;;;1.40;1.13;;;23.80;73.70;;;;;;4973496;23;20916;-75
2023/07/18 10:30:21;;;;;;;2.60;1.43;;;23.90;73.50;;;;;;4959985;28;20445;-80
2023/07/18 10:32:55;;;;;;;1.30;1.20;;;24.00;73.00;;;;;;4971514;28;20792;-75
2023/07/18 10:35:24;;;;;;;1.57;1.37;;;24.10;72.40;;;;;;4962637;28;20929;-76
2023/07/18 10:37:53;;;;;;;1.57;1.27;;;24.20;72.90;;;;;;4970310;28;20461;-76
2023/07/18 10:40:36;;;;;;;2.83;1.83;;;24.20;73.60;;;;;;4959769;28;20795;-75
2023/07/18 10:43:05;;;;;;;2.00;1.30;;;24.30;73.70;;;;;;4960689;28;20827;-74
2023/07/18 10:45:39;;;;;;;1.23;1.20;;;24.40;72.60;;;;;;4968951;28;20492;-75
2023/07/18 10:48:19;;;;;;;1.77;1.67;;;24.40;71.60;;;;;;4968794;28;20477;-74
2023/07/18 10:50:46;;;;;;;1.67;1.63;;;24.40;70.80;;;;;;4968749;28;20457;-74
2023/07/18 10:53:18;;;;;;;2.50;1.70;;;24.40;70.90;;;;;;4969941;28;20430;-75
2023/07/18 10:55:45;;;;;;;2.10;1.40;;;24.40;71.20;;;;;;4963866;28;20442;-75
2023/07/18 10:58:19;;;;;;;1.23;1.13;;;24.40;69.10;;;;;;4966278;28;20433;-72
2023/07/18 11:00:45;;;;;;;1.10;1.00;;;24.40;70.10;;;;;;4962919;28;20478;-74
2023/07/18 11:03:21;;;;;;;1.00;0.90;;;24.40;69.90;;;;;;4970439;28;20449;-74
2023/07/18 11:05:48;;;;;;;1.63;1.13;;;24.40;70.20;;;;;;4968019;28;20500;-74
2023/07/18 11:08:28;;;;;;;1.07;1.03;;;24.40;71.00;;;;;;4970277;28;20470;-75
2023/07/18 11:10:59;;;;;;;1.33;1.27;;;24.40;71.00;;;;;;4969889;28;20433;-74
2023/07/18 11:13:36;;;;;;;2.77;1.20;;;24.50;70.10;;;;;;4961070;28;20435;-76
2023/07/18 11:16:05;;;;;;;1.67;0.93;;;24.60;69.60;;;;;;4959187;28;20517;-75
2023/07/18 11:18:41;;;;;;;1.10;1.00;;;24.70;67.40;;;;;;4963409;28;20438;-74
2023/07/18 11:21:08;;;;;;;7.83;1.50;;;24.70;68.30;;;;;;4966238;28;20441;-73
2023/07/18 11:23:35;;;;;;;1.23;1.20;;;24.60;67.90;;;;;;4959411;28;20493;-74
2023/07/18 11:26:12;;;;;;;1.70;1.50;;;24.60;68.50;;;;;;4959413;28;20422;-72
2023/07/18 11:28:39;;;;;;;1.57;1.37;;;24.70;69.20;;;;;;4965079;28;20474;-72
2023/07/18 11:31:05;;;;;;;1.20;1.17;;;24.90;69.00;;;;;;4968593;28;20474;-73
2023/07/18 11:33:34;;;;;;;5.90;2.50;;;25.00;68.60;;;;;;4968635;28;20437;-74
2023/07/18 11:36:00;;;;;;;1.30;1.00;;;25.10;69.50;;;;;;4963357;28;20816;-75
2023/07/18 11:38:29;;;;;;;1.00;0.90;;;25.20;67.10;;;;;;4968651;28;20804;-67
2023/07/18 11:40:55;;;;;;;2.47;1.20;;;25.30;66.20;;;;;;4968170;28;20544;-74
2023/07/18 11:43:20;;;;;;;3.60;1.70;;;25.30;66.50;;;;;;4968740;28;20545;-77
2023/07/18 11:45:47;;;;;;;1.00;0.90;;;25.30;67.20;;;;;;4969067;28;20214;-74
2023/07/18 11:48:16;;;;;;;1.10;1.00;;;25.40;67.70;;;;;;4966176;28;20746;-75
2023/07/18 11:50:45;;;;;;;1.53;1.43;;;25.50;66.70;;;;;;4968285;28;20457;-73
2023/07/18 11:53:11;;;;;;;2.13;1.87;;;25.50;65.70;;;;;;4968807;28;20422;-70
2023/07/18 11:55:37;;;;;;;1.77;1.40;;;25.60;66.50;;;;;;4969418;28;20433;-71
2023/07/18 11:58:07;;;;;;;5.53;1.37;;;25.60;66.20;;;;;;4967912;28;20422;-69
2023/07/18 12:00:35;;;;;;;1.23;1.20;;;25.70;67.20;;;;;;4968760;28;20221;-72
2023/07/18 12:03:01;;;;;;;1.20;1.10;;;25.80;68.30;;;;;;4969569;28;20521;-71
2023/07/18 12:05:26;;;;;;;1.87;1.10;;;25.90;68.30;;;;;;4968691;28;20539;-71
2023/07/18 12:07:52;;;;;;;1.03;0.93;;;26.10;67.90;;;;;;4969540;28;20293;-71
2023/07/18 12:10:18;;;;;;;1.20;1.10;;;26.10;67.70;;;;;;4969789;28;20550;-68
2023/07/18 12:12:44;;;;;;;0.90;0.90;;;26.20;66.30;;;;;;4962924;28;20186;-71
2023/07/18 12:15:11;;;;;;;1.77;1.50;;;26.20;66.90;;;;;;4967721;28;20425;-69
2023/07/18 12:17:38;;;;;;;1.13;1.03;;;26.30;65.70;;;;;;4965684;28;20277;-67
2023/07/18 12:20:04;;;;;;;1.07;0.97;;;26.20;65.40;;;;;;4967942;28;20969;-71
2023/07/18 12:22:31;;;;;;;1.67;1.63;;;26.20;65.20;;;;;;4969883;28;20910;-71
2023/07/18 12:24:56;;;;;;;1.07;1.03;;;26.20;65.80;;;;;;4952005;28;20550;-73
2023/07/18 12:27:22;;;;;;;1.70;1.60;;;26.30;65.30;;;;;;4968206;28;20549;-70
2023/07/18 12:29:47;;;;;;;1.20;1.10;;;26.40;65.20;;;;;;4966815;28;20726;-71
2023/07/18 12:32:13;;;;;;;1.47;1.37;;;26.40;64.60;;;;;;4961135;28;20222;-69
2023/07/18 12:34:39;;;;;;;1.00;1.00;;;26.40;65.60;;;;;;4967867;28;20582;-71
2023/07/18 12:37:06;;;;;;;1.03;0.93;;;26.40;66.30;;;;;;4964097;28;20167;-70
2023/07/18 12:39:32;;;;;;;2.00;1.10;;;26.30;65.40;;;;;;4968480;28;20434;-72
2023/07/18 12:41:59;;;;;;;1.97;1.60;;;26.20;65.60;;;;;;4967529;28;20872;-72
2023/07/18 12:44:41;;;;;;;2.07;1.67;;;26.10;65.40;;;;;;4969067;28;20194;-72
2023/07/18 12:47:07;;;;;;;1.77;1.63;;;26.10;65.30;;;;;;4966294;28;20473;-72
2023/07/18 12:49:35;;;;;;;1.07;0.97;;;26.00;63.80;;;;;;4969443;28;20418;-70
2023/07/18 12:52:00;;;;;;;1.83;1.13;;;26.00;64.50;;;;;;4960481;28;20445;-73
2023/07/18 12:54:26;;;;;;;1.30;1.20;;;26.10;64.00;;;;;;4961229;28;20764;-71
2023/07/18 12:56:52;;;;;;;1.10;1.00;;;26.10;64.10;;;;;;4966101;28;20237;-71
2023/07/18 12:59:18;;;;;;;1.10;1.00;;;26.10;63.50;;;;;;4966604;28;20474;-73
2023/07/18 13:01:44;;;;;;;1.40;1.13;;;26.10;63.00;;;;;;4966061;28;20298;-72
2023/07/18 13:04:09;;;;;;;1.10;1.00;;;26.10;63.80;;;;;;4969077;28;20521;-71
2023/07/18 13:06:35;;;;;;;1.67;1.60;;;26.10;63.40;;;;;;4965074;28;20470;-71
2023/07/18 13:09:02;;;;;;;1.00;0.90;;;26.00;63.50;;;;;;4966852;28;20666;-74
2023/07/18 13:11:28;;;;;;;1.20;1.10;;;26.00;63.30;;;;;;4967813;28;20827;-74
2023/07/18 13:13:56;;;;;;;1.63;1.20;;;25.90;63.80;;;;;;4967431;28;20430;-74
2023/07/18 13:16:22;;;;;;;1.17;1.07;;;25.90;64.80;;;;;;4969313;28;20452;-72
2023/07/18 13:18:48;;;;;;;1.50;1.40;;;25.90;64.70;;;;;;4966672;28;20922;-74
2023/07/18 13:21:14;;;;;;;1.10;1.00;;;25.90;63.00;;;;;;4967685;28;20202;-73
2023/07/18 13:23:40;;;;;;;2.13;1.40;;;25.90;64.30;;;;;;4964123;28;20426;-73
2023/07/18 13:26:06;;;;;;;1.80;1.30;;;25.90;64.40;;;;;;4963545;28;20792;-73
2023/07/18 13:28:32;;;;;;;1.20;1.10;;;25.90;64.80;;;;;;4965965;28;20261;-71
2023/07/18 13:30:58;;;;;;;1.57;1.10;;;25.90;64.90;;;;;;4966090;28;20500;-73
2023/07/18 13:33:23;;;;;;;1.70;1.60;;;25.90;64.70;;;;;;4967098;28;20776;-73
2023/07/18 13:35:49;;;;;;;1.90;1.30;;;26.00;65.10;;;;;;4959184;28;20777;-72
2023/07/18 13:38:14;;;;;;;1.00;0.90;;;26.00;63.60;;;;;;4964708;28;20182;-73
2023/07/18 13:40:40;;;;;;;1.10;1.00;;;26.00;63.80;;;;;;4959437;28;20254;-73
2023/07/18 13:43:07;;;;;;;1.83;1.43;;;26.00;63.30;;;;;;4966536;28;20200;-73
2023/07/18 13:45:32;;;;;;;1.67;1.43;;;26.00;64.20;;;;;;4966709;28;20422;-73
2023/07/18 13:47:58;;;;;;;1.30;1.20;;;26.00;64.50;;;;;;4962577;28;20993;-73
2023/07/18 13:50:24;;;;;;;1.13;1.10;;;26.00;63.90;;;;;;4966736;28;20699;-74
2023/07/18 13:52:51;;;;;;;9.43;1.77;;;26.00;64.20;;;;;;4966066;28;20697;-74
2023/07/18 13:55:17;;;;;;;2.50;1.20;;;26.00;64.50;;;;;;4967330;28;20661;-72
2023/07/18 13:57:42;;;;;;;1.20;1.10;;;26.10;64.50;;;;;;4949275;28;20431;-72
2023/07/18 14:00:08;;;;;;;1.03;0.97;;;26.10;63.90;;;;;;4957970;28;20431;-74
2023/07/18 14:02:34;;;;;;;1.00;0.90;;;26.10;64.80;;;;;;4956679;28;20183;-73
2023/07/18 14:04:59;;;;;;;1.10;1.00;;;26.20;65.30;;;;;;4966732;28;20541;-73
2023/07/18 14:07:25;;;;;;;1.00;0.90;;;26.30;64.00;;;;;;4968419;28;20710;-73
2023/07/18 14:09:50;;;;;;;1.30;1.20;;;26.50;63.60;;;;;;4967002;28;20193;-73
2023/07/18 14:12:16;;;;;;;2.30;1.30;;;26.70;63.70;;;;;;4966728;28;20194;-72
2023/07/18 14:14:42;;;;;;;1.03;1.00;;;26.80;60.40;;;;;;4961785;28;20187;-73
2023/07/18 14:17:08;;;;;;;1.33;1.23;;;26.90;61.10;;;;;;4968277;28;20167;-73
2023/07/18 14:19:34;;;;;;;1.07;1.00;;;27.00;62.80;;;;;;4967991;28;20575;-73
2023/07/18 14:22:00;;;;;;;1.83;1.17;;;27.20;62.70;;;;;;4950885;28;20524;-73
2023/07/18 14:24:25;;;;;;;1.80;1.13;;;27.50;62.00;;;;;;4966842;28;20258;-72
2023/07/18 14:26:51;;;;;;;2.90;1.30;;;27.70;60.50;;;;;;4965779;28;20640;-72
2023/07/18 14:29:18;;;;;;;2.40;1.60;;;27.90;60.90;;;;;;4968175;28;20358;-74
2023/07/18 14:31:44;;;;;;;2.07;1.37;;;28.00;60.60;;;;;;4968331;28;20541;-73
2023/07/18 14:34:09;;;;;;;1.63;1.60;;;28.00;59.80;;;;;;4968008;28;20469;-73
2023/07/18 14:36:35;;;;;;;1.80;1.27;;;27.90;59.90;;;;;;4959878;28;20178;-74
2023/07/18 14:39:01;;;;;;;1.27;1.00;;;27.80;60.40;;;;;;4966127;28;20182;-73
2023/07/18 14:41:26;;;;;;;2.53;1.30;;;27.70;61.20;;;;;;4968191;28;20622;-73
2023/07/18 14:43:52;;;;;;;1.23;1.13;;;27.70;59.30;;;;;;4949419;28;20186;-71
2023/07/18 14:46:17;;;;;;;1.80;1.23;;;27.70;60.50;;;;;;4959441;28;20178;-74
2023/07/18 14:48:43;;;;;;;1.90;1.60;;;27.90;60.20;;;;;;4957667;28;20675;-74
2023/07/18 14:51:08;;;;;;;3.90;1.00;;;28.00;60.40;;;;;;4971127;28;20687;-74
2023/07/18 14:53:34;;;;;;;0.90;0.80;;;28.20;61.20;;;;;;4971082;28;20177;-73
2023/07/18 14:56:00;;;;;;;0.90;0.80;;;28.40;60.70;;;;;;4969909;28;20535;-72
2023/07/18 14:58:26;;;;;;;1.50;1.27;;;28.50;60.70;;;;;;4968615;28;20189;-72
2023/07/18 15:00:51;;;;;;;0.90;0.80;;;28.70;60.20;;;;;;4964544;28;20625;-73
2023/07/18 15:03:17;;;;;;;4.40;1.80;;;28.80;60.20;;;;;;4970494;28;20252;-72
2023/07/18 15:05:42;;;;;;;1.10;1.00;;;28.90;59.50;;;;;;4969518;28;20179;-72
2023/07/18 15:08:08;;;;;;;2.07;1.10;;;29.00;59.50;;;;;;4971064;28;20206;-73
2023/07/18 15:10:33;;;;;;;1.33;1.23;;;28.90;59.40;;;;;;4970923;28;20231;-72
2023/07/18 15:12:59;;;;;;;1.67;1.10;;;28.80;59.40;;;;;;4970752;28;20185;-73
2023/07/18 15:15:25;;;;;;;1.00;0.90;;;28.70;59.40;;;;;;4965965;28;20659;-73
2023/07/18 15:17:50;;;;;;;1.10;0.97;;;28.80;60.50;;;;;;4967231;28;20226;-72
2023/07/18 15:20:16;;;;;;;1.00;0.90;;;29.00;60.00;;;;;;4969356;28;20724;-72
2023/07/18 15:22:42;;;;;;;1.30;1.10;;;29.10;60.60;;;;;;4970742;28;20592;-72
2023/07/18 15:25:09;;;;;;;1.47;1.10;;;29.20;60.50;;;;;;4956024;28;20553;-72
2023/07/18 15:27:35;;;;;;;1.00;0.97;;;29.20;58.70;;;;;;4970552;28;20489;-71
2023/07/18 15:30:02;;;;;;;1.10;0.90;;;29.10;58.60;;;;;;4969742;28;20422;-73
2023/07/18 15:32:27;;;;;;;1.10;1.00;;;28.90;58.40;;;;;;4966703;28;20446;-72
2023/07/18 15:34:53;;;;;;;1.77;1.67;;;28.60;58.60;;;;;;4953111;28;20561;-73
2023/07/18 15:37:18;;;;;;;1.27;1.17;;;28.30;59.40;;;;;;4963500;28;20182;-72
2023/07/18 15:39:44;;;;;;;1.30;1.17;;;28.00;59.20;;;;;;4962704;28;20195;-71
2023/07/18 15:42:10;;;;;;;1.30;1.20;;;27.90;59.60;;;;;;4968057;28;20205;-73
2023/07/18 15:44:36;;;;;;;2.00;1.40;;;27.80;60.50;;;;;;4969661;28;20182;-74
2023/07/18 15:47:01;;;;;;;1.97;1.83;;;28.00;61.20;;;;;;4968994;28;20183;-74
2023/07/18 15:49:27;;;;;;;4.00;1.27;;;28.20;60.40;;;;;;4967555;28;20442;-73
2023/07/18 15:51:53;;;;;;;1.20;1.10;;;28.50;61.00;;;;;;4963393;28;20569;-73
2023/07/18 15:54:19;;;;;;;3.63;1.27;;;28.70;60.30;;;;;;4961896;28;20192;-73
2023/07/18 15:56:44;;;;;;;1.10;1.10;;;28.80;59.40;;;;;;4967337;28;20489;-73
2023/07/18 15:59:10;;;;;;;1.87;1.27;;;28.90;59.40;;;;;;4968931;28;20705;-72
2023/07/18 16:01:36;;;;;;;1.10;1.00;;;29.00;59.40;;;;;;4966868;28;20733;-72
2023/07/18 16:04:03;;;;;;;1.27;1.13;;;29.10;59.00;;;;;;4967254;28;20513;-72
2023/07/18 16:06:29;;;;;;;0.80;0.80;;;29.00;58.50;;;;;;4968863;28;20273;-73
2023/07/18 16:08:55;;;;;;;1.73;1.30;;;29.00;59.40;;;;;;4969421;28;20544;-72
2023/07/18 16:11:20;;;;;;;1.23;0.93;;;29.10;59.60;;;;;;4966122;28;20226;-72
2023/07/18 16:13:46;;;;;;;2.23;1.53;;;29.10;59.10;;;;;;4965250;28;20193;-72
2023/07/18 16:16:13;;;;;;;3.43;2.03;;;29.10;59.50;;;;;;4968560;28;20643;-72
2023/07/18 16:18:59;;;;;;;2.40;1.40;;;29.20;59.00;;;;;;4969775;23;20246;-76
2023/07/18 16:21:25;;;;;;;1.67;1.20;;;29.20;59.00;;;;;;4972341;28;20470;-76
2023/07/18 16:23:51;;;;;;;2.30;1.70;;;29.30;59.10;;;;;;4951332;28;20426;-77
2023/07/18 16:26:18;;;;;;;0.90;0.83;;;29.40;58.80;;;;;;4958184;28;20450;-76
2023/07/18 16:28:48;;;;;;;1.73;1.10;;;29.30;58.80;;;;;;4950660;28;20497;-76
2023/07/18 16:31:14;;;;;;;1.53;1.40;;;29.20;58.30;;;;;;4950081;28;20454;-75
2023/07/18 16:33:40;;;;;;;1.10;1.00;;;29.10;58.30;;;;;;4956898;28;20414;-76
2023/07/18 16:36:06;;;;;;;3.50;1.73;;;29.00;58.40;;;;;;4950403;28;20198;-76
2023/07/18 16:38:32;;;;;;;1.47;1.37;;;28.90;58.60;;;;;;4949687;28;20675;-76
2023/07/18 16:40:58;;;;;;;2.83;2.00;;;28.80;58.50;;;;;;4949226;28;20249;-75
2023/07/18 16:43:24;;;;;;;1.10;1.00;;;28.80;58.60;;;;;;4948695;29;20426;-75